• Join FlightAware (Why Join?)
  • Login
  • US Flag 
09:58PM EST


 

Airport Tracker/Info


-or-


 

Live Flight TrackerFlight Track Log ✈ UAL878 ✈ 26-Apr-2013 ✈ ZSPD / PVG - KLAX

Flight Track Log - Related Links

Times and Time Zones

All times are in EDT time to prevent confusion due to time zone crossing. See the UAL878 flight status page for this flight to view local times or setup timezone preferences in your user account.

Time Position Orientation Groundspeed Altitude Reporting Facility
EDT Latitude Longitude Course Direction KTS MPH feet Rate Location/Type
08:54AM 31.1070 121.8360 137° Southeast 180 207 1,500  Level FlightAware
08:55AM 31.0940 121.8500 137° Southeast 181 208 2,100 1,320 Climbing FlightAware
08:56AM 31.0420 121.8910 146° Southeast 233 268 3,400 1,200 Climbing FlightAware
08:56AM 31.0120 121.9130 148° Southeast 269 310 4,000 1,380 Climbing FlightAware
08:57AM 30.9900 121.9310 145° Southeast 271 312 4,700 2,100 Climbing FlightAware
08:57AM 30.9710 121.9500 139° Southeast 284 327 5,400 2,160 Climbing FlightAware
08:57AM 30.9640 121.9710 111° Southeast 286 329 5,800 2,160 Climbing FlightAware
08:58AM 30.9720 122.0320 81° East 286 329 7,400 2,400 Climbing FlightAware
08:58AM 30.9790 122.0790 80° East 288 331 8,600 2,160 Climbing FlightAware
08:59AM 30.9850 122.1250 81° East 297 342 9,600 1,500 Climbing FlightAware
09:00AM 30.9940 122.1920 81° East 326 375 10,400 1,200 Climbing FlightAware
09:00AM 31.0010 122.2650 84° East 355 409 11,200 1,020 Climbing FlightAware
09:01AM 31.0010 122.3550 90° East 389 448 11,900 1,260 Climbing FlightAware
09:02AM 31.0000 122.4430 91° East 410 472 13,000 1,680 Climbing FlightAware
09:02AM 31.0000 122.5420 90° East 425 489 14,300 1,680 Climbing FlightAware
09:03AM 31.0010 122.6360 89° East 436 502 15,400 1,620 Climbing FlightAware
09:04AM 31.0010 122.7320 90° East 448 516 16,500 1,620 Climbing FlightAware
09:05AM 31.0000 122.8360 91° East 458 527 17,700 1,500 Climbing FlightAware
09:05AM 31.0000 122.9260 90° East 467 537 18,500 1,380 Climbing FlightAware
09:06AM 31.0180 123.0540 81° East 466 536 19,700 1,440 Climbing FlightAware
09:07AM 31.0500 123.1470 68° East 469 540 20,700 960 Climbing FlightAware
09:07AM 31.0890 123.2540 67° East 471 542 21,200 300 Climbing FlightAware
09:08AM 31.1170 123.3340 68° East 471 542 21,200  Level FlightAware
09:09AM 31.1540 123.4330 66° East 471 542 21,200  Level FlightAware
09:10AM 31.1830 123.5130 67° East 471 542 21,200  Level FlightAware
09:10AM 31.2120 123.5930 67° East 471 542 21,200  Level FlightAware
09:11AM 31.2400 123.6730 68° East 471 542 21,200 720 Level FlightAware
09:14AM 31.4856 123.9845 47° Northeast  Level Estimated
09:15AM 31.5817 124.1071 47° Northeast  Level Estimated
09:15AM 31.5230 124.4740 47° Northeast 513 590 25,000  Level FlightAware
09:16AM 31.6777 124.2299 47° Northeast  Level Estimated
09:16AM 31.5590 124.5760 67° East 512 589 25,000  Level FlightAware
09:17AM 31.6000 124.6900 67° East 512 589 25,000  Level FlightAware
09:18AM 31.6310 124.7770 67° East 512 589 25,000  Level FlightAware
09:18AM 31.6630 124.8640 67° East 512 589 25,000  Level FlightAware
09:19AM 31.6940 124.9510 67° East 512 589 25,000  Level FlightAware
09:20AM 31.7260 125.0380 67° East 512 589 25,000  Level FlightAware
09:20AM 31.7570 125.1260 67° East 512 589 25,000 120 Level FlightAware
09:23AM 31.9753 125.4119 48° Northeast  Level Estimated
09:24AM 32.0700 125.5367 48° Northeast  Level Estimated
09:25AM 32.1646 125.6617 48° Northeast  Level Estimated
09:26AM 32.2591 125.7870 48° Northeast  Level Estimated
09:27AM 32.3534 125.9125 48° Northeast  Level Estimated
09:28AM 32.4477 126.0383 48° Northeast  Level Estimated
09:29AM 32.5418 126.1644 48° Northeast  Level Estimated
09:30AM 32.6357 126.2907 49° Northeast  Level Estimated
09:31AM 32.7296 126.4173 49° Northeast  Level Estimated
09:32AM 32.8233 126.5441 49° Northeast  Level Estimated
09:33AM 32.9169 126.6712 49° Northeast  Level Estimated
09:34AM 33.0103 126.7986 49° Northeast  Level Estimated
09:35AM 33.1037 126.9263 49° Northeast  Level Estimated
09:36AM 33.1969 127.0542 49° Northeast  Level Estimated
09:37AM 33.2899 127.1824 49° Northeast  Level Estimated
09:38AM 33.3829 127.3109 49° Northeast  Level Estimated
09:39AM 33.4757 127.4397 49° Northeast  Level Estimated
09:40AM 33.5684 127.5687 49° Northeast  Level Estimated
09:41AM 33.6609 127.6980 49° Northeast  Level Estimated
09:42AM 33.7533 127.8276 49° Northeast  Level Estimated
09:43AM 33.8456 127.9574 49° Northeast  Level Estimated
09:43AM 32.7170 129.2270 50° Northeast 569 655 29,000  Level FlightAware
09:44AM 33.9377 128.0876 50° Northeast  Level Estimated
09:46AM 32.9108 129.5040 50° Northeast  Level Estimated
09:47AM 33.0014 129.6342 50° Northeast  Level Estimated
09:48AM 33.0919 129.7648 50° Northeast  Level Estimated
09:49AM 33.1823 129.8955 50° Northeast  Level Estimated
09:50AM 33.2725 130.0266 51° Northeast  Level Estimated
09:51AM 33.3626 130.1579 51° Northeast  Level Estimated
09:52AM 33.4525 130.2895 51° Northeast  Level Estimated
09:53AM 33.5423 130.4214 51° Northeast  Level Estimated
09:54AM 33.6320 130.5535 51° Northeast  Level Estimated
09:55AM 33.7215 130.6860 51° Northeast  Level Estimated
09:56AM 33.8109 130.8187 51° Northeast  Level Estimated
09:57AM 33.9001 130.9516 51° Northeast  Level Estimated
09:58AM 33.9892 131.0849 51° Northeast  Level Estimated
09:59AM 34.0782 131.2184 51° Northeast  Level Estimated
10:00AM 34.1670 131.3522 51° Northeast  Level Estimated
10:01AM 34.2556 131.4863 51° Northeast  Level Estimated
10:02AM 34.3442 131.6207 51° Northeast  Level Estimated
10:02AM 33.6120 132.6330 51° Northeast 584 672 29,000  Level FlightAware
10:03AM 33.6440 132.7740 75° East 585 673 29,000  Level FlightAware
10:04AM 33.6720 132.8990 75° East 585 673 29,000  Level FlightAware
10:04AM 33.7010 133.0240 74° East 587 676 29,000  Level FlightAware
10:05AM 33.7330 133.1630 74° East 589 678 29,000  Level FlightAware
10:06AM 33.7630 133.2930 74° East 588 677 29,000  Level FlightAware
10:06AM 33.7950 133.4340 75° East 591 680 29,000  Level FlightAware
10:07AM 33.8240 133.5620 75° East 591 680 29,000  Level FlightAware
10:08AM 33.8630 133.7360 75° East 594 684 29,000  Level FlightAware
10:09AM 33.9000 133.9010 75° East 592 681 29,000  Level FlightAware
10:10AM 33.9510 134.1280 75° East 596 686 29,000  Level FlightAware
10:11AM 33.9890 134.3030 75° East 596 686 29,000  Level FlightAware
10:12AM 34.0450 134.5610 75° East 593 682 29,000 120 Level FlightAware
10:14AM 34.0980 134.8080 75° East 585 673 29,400 360 Climbing FlightAware
10:14AM 34.1330 134.9690 75° East 591 680 29,800 420 Climbing FlightAware
10:15AM 34.1570 135.0860 76° East 591 680 30,000 420 Climbing FlightAware
10:16AM 34.1870 135.2260 75° East 587 676 30,400 540 Climbing FlightAware
10:16AM 34.2140 135.3570 76° East 594 684 30,800 300 Climbing FlightAware
10:18AM 34.2610 135.5810 76° East 590 679 31,000 60 Climbing FlightAware
10:18AM 34.2870 135.7080 76° East 592 681 31,000  Level FlightAware
10:19AM 34.3200 135.8650 76° East 594 684 31,000  Level FlightAware
10:20AM 34.3430 135.9790 76° East 594 684 31,000  Level FlightAware
10:21AM 34.4100 136.3140 76° East 596 686 31,000  Level FlightAware
10:22AM 34.4460 136.4930 76° East 596 686 31,000  Level FlightAware
10:23AM 34.4700 136.6130 76° East 593 682 31,000  Level FlightAware
10:24AM 34.5000 136.7640 76° East 594 684 31,000  Level FlightAware
10:24AM 34.5250 136.8970 77° East 595 685 31,000  Level FlightAware
10:25AM 34.5380 137.0300 83° East 596 686 31,000  Level FlightAware
10:26AM 34.5460 137.3090 88° East 601 692 31,000  Level FlightAware
10:27AM 34.5670 137.4600 80° East 599 689 31,000  Level FlightAware
10:28AM 34.5980 137.5930 74° East 599 689 31,000  Level FlightAware
10:29AM 34.6290 137.7310 75° East 599 689 31,000  Level FlightAware
10:29AM 34.6590 137.8680 75° East 604 695 31,000  Level FlightAware
10:30AM 34.6940 138.0230 75° East 603 694 31,000  Level FlightAware
10:31AM 34.7250 138.1590 74° East 604 695 31,000  Level FlightAware
10:32AM 34.7650 138.3320 74° East 607 699 31,000  Level FlightAware
10:32AM 34.7910 138.4480 75° East 605 696 31,000  Level FlightAware
10:33AM 34.8220 138.5840 74° East 605 696 31,000  Level FlightAware
10:34AM 34.8520 138.7220 75° East 602 693 31,000 60 Level FlightAware
10:34AM 34.8840 138.8630 74° East 597 687 31,100 300 Climbing FlightAware
10:35AM 34.9130 138.9940 75° East 596 686 31,400 480 Climbing FlightAware
10:36AM 34.9450 139.1430 75° East 600 690 31,800 360 Climbing FlightAware
10:37AM 34.9770 139.2880 75° East 597 687 32,000 120 Climbing FlightAware
10:37AM 35.0060 139.4210 75° East 596 686 32,000  Level FlightAware
10:38AM 35.0370 139.5650 75° East 597 687 32,000  Level FlightAware
10:39AM 35.0640 139.6940 76° East 596 686 32,000  Level FlightAware
10:39AM 35.0930 139.8270 75° East 594 684 32,000  Level FlightAware
10:40AM 35.1230 139.9710 76° East 593 682 32,000  Level FlightAware
10:41AM 35.1500 140.1010 76° East 592 681 32,000  Level FlightAware
10:41AM 35.1800 140.2440 76° East 592 681 32,000  Level FlightAware
10:42AM 35.2080 140.3770 76° East 591 680 32,000  Level FlightAware
10:43AM 35.2330 140.4970 76° East 591 680 32,000  Level FlightAware
10:44AM 35.2650 140.6560 76° East 589 678 32,000  Level FlightAware
10:44AM 35.2910 140.7830 76° East 591 680 32,000  Level FlightAware
10:45AM 35.3210 140.9280 76° East 592 681 32,000  Level FlightAware
10:46AM 35.3500 141.0760 76° East 594 684 32,000  Level FlightAware
10:46AM 35.3770 141.2070 76° East 595 685 32,000  Level FlightAware
10:47AM 35.4030 141.3420 77° East 593 682 32,000  Level FlightAware
10:48AM 35.4290 141.4710 76° East 593 682 32,000  Level FlightAware
10:48AM 35.4570 141.6160 77° East 593 682 32,000  Level FlightAware
10:49AM 35.4810 141.7390 76° East 592 681 32,000  Level FlightAware
10:50AM 35.5110 141.8950 77° East 592 681 32,000  Level FlightAware
10:51AM 35.5380 142.0330 76° East 593 682 32,000  Level FlightAware
10:52AM 35.5720 142.2120 77° East 593 682 32,000  Level FlightAware
10:52AM 35.5980 142.3510 77° East 593 682 32,000  Level FlightAware
10:53AM 35.6240 142.4890 77° East 594 684 32,000  Level FlightAware
10:54AM 35.6500 142.6260 77° East 594 684 32,000  Level FlightAware
10:54AM 35.6730 142.7470 77° East 594 684 32,000  Level FlightAware
10:55AM 35.7000 142.8950 77° East 592 681 32,000  Level FlightAware
10:56AM 35.7280 143.0480 77° East 592 681 32,000  Level FlightAware
10:57AM 35.7490 143.1600 77° East 592 681 32,000  Level FlightAware
10:57AM 35.7750 143.2990 77° East 592 681 32,000  Level FlightAware
10:58AM 35.7960 143.4110 77° East 592 681 32,000  Level FlightAware
10:59AM 35.8170 143.5230 77° East 592 681 32,000  Level FlightAware
10:59AM 35.8380 143.6350 77° East 592 681 32,000  Level FlightAware
11:00AM 35.8590 143.7470 77° East 592 681 32,000  Level FlightAware
11:01AM 35.8850 143.8870 77° East 592 681 32,000  Level FlightAware
11:02AM 35.9060 143.9990 77° East 592 681 32,000  Level FlightAware
11:02AM 35.9270 144.1110 77° East 592 681 32,000  Level FlightAware
11:03AM 35.9480 144.2230 77° East 592 681 32,000  Level FlightAware
11:04AM 35.9690 144.3350 77° East 592 681 32,000  Level FlightAware
11:04AM 35.9950 144.4750 77° East 592 681 32,000  Level FlightAware
11:05AM 36.0160 144.5870 77° East 592 681 32,000  Level FlightAware
11:08AM 36.1999 144.9552 58° Northeast  Level Estimated
11:09AM 36.2741 145.1049 58° Northeast  Level Estimated
11:10AM 36.3481 145.2550 58° Northeast  Level Estimated
11:11AM 36.4220 145.4053 59° Northeast  Level Estimated
11:12AM 36.4956 145.5559 59° Northeast  Level Estimated
11:13AM 36.5691 145.7068 59° Northeast  Level Estimated
11:14AM 36.6423 145.8580 59° Northeast  Level Estimated
11:15AM 36.7154 146.0094 59° Northeast  Level Estimated
11:16AM 36.7883 146.1612 59° Northeast  Level Estimated
11:17AM 36.8610 146.3133 59° Northeast  Level Estimated
11:18AM 36.9335 146.4656 59° Northeast  Level Estimated
11:19AM 37.0058 146.6182 59° Northeast  Level Estimated
11:20AM 37.0779 146.7711 59° Northeast  Level Estimated
11:21AM 37.1498 146.9244 59° Northeast  Level Estimated
11:22AM 37.2216 147.0779 60° Northeast  Level Estimated
11:23AM 37.2931 147.2316 60° Northeast  Level Estimated
11:24AM 37.3644 147.3857 60° Northeast  Level Estimated
11:25AM 37.4355 147.5401 60° Northeast  Level Estimated
11:26AM 37.5064 147.6948 60° Northeast  Level Estimated
11:27AM 37.5772 147.8497 60° Northeast  Level Estimated
11:28AM 37.6477 148.0050 60° Northeast  Level Estimated
11:29AM 37.7180 148.1605 60° Northeast  Level Estimated
11:30AM 37.7881 148.3164 60° Northeast  Level Estimated
11:31AM 37.8580 148.4725 60° Northeast  Level Estimated
11:32AM 37.9278 148.6292 61° Northeast  Level Estimated
11:33AM 37.9974 148.7862 61° Northeast  Level Estimated
11:34AM 38.0668 148.9434 61° Northeast  Level Estimated
11:35AM 38.1359 149.1010 61° Northeast  Level Estimated
11:36AM 38.2049 149.2589 61° Northeast  Level Estimated
11:37AM 38.2736 149.4170 61° Northeast  Level Estimated
11:38AM 38.3422 149.5755 61° Northeast  Level Estimated
11:39AM 38.4105 149.7342 61° Northeast  Level Estimated
11:40AM 38.4786 149.8933 61° Northeast  Level Estimated
11:41AM 38.5465 150.0527 61° Northeast  Level Estimated
11:42AM 38.6142 150.2123 61° Northeast  Level Estimated
11:43AM 38.6816 150.3723 62° Northeast  Level Estimated
11:44AM 38.7489 150.5325 62° Northeast  Level Estimated
11:45AM 38.8159 150.6931 62° Northeast  Level Estimated
11:46AM 38.8827 150.8540 62° Northeast  Level Estimated
11:47AM 38.9493 151.0152 62° Northeast  Level Estimated
11:48AM 39.0156 151.1766 62° Northeast  Level Estimated
11:49AM 39.0817 151.3384 62° Northeast  Level Estimated
11:50AM 39.1477 151.5005 62° Northeast  Level Estimated
11:51AM 39.2133 151.6629 62° Northeast  Level Estimated
11:52AM 39.2788 151.8255 62° Northeast  Level Estimated
11:53AM 39.3440 151.9885 63° Northeast  Level Estimated
11:54AM 39.4090 152.1518 63° Northeast  Level Estimated
11:55AM 39.4738 152.3154 63° Northeast  Level Estimated
11:56AM 39.5384 152.4793 63° Northeast  Level Estimated
11:57AM 39.6027 152.6435 63° Northeast  Level Estimated
11:58AM 39.6668 152.8080 63° Northeast  Level Estimated
11:59AM 39.7306 152.9729 63° Northeast  Level Estimated
12:00PM 39.7942 153.1380 63° Northeast  Level Estimated
12:01PM 39.8576 153.3034 63° Northeast  Level Estimated
12:02PM 39.9207 153.4691 64° Northeast  Level Estimated
12:03PM 39.9837 153.6352 64° Northeast  Level Estimated
12:04PM 40.0463 153.8015 64° Northeast  Level Estimated
12:05PM 40.1088 153.9682 64° Northeast  Level Estimated
12:06PM 40.1710 154.1351 64° Northeast  Level Estimated
12:07PM 40.2329 154.3024 64° Northeast  Level Estimated
12:08PM 40.2946 154.4700 64° Northeast  Level Estimated
12:09PM 40.3561 154.6378 64° Northeast  Level Estimated
12:10PM 40.4173 154.8060 64° Northeast  Level Estimated
12:11PM 40.4783 154.9745 65° Northeast  Level Estimated
12:12PM 40.5391 155.1433 65° Northeast  Level Estimated
12:13PM 40.5996 155.3124 65° Northeast  Level Estimated
12:14PM 40.6598 155.4818 65° Northeast  Level Estimated
12:15PM 40.7198 155.6515 65° Northeast  Level Estimated
12:16PM 40.7796 155.8215 65° Northeast  Level Estimated
12:17PM 40.8391 155.9918 65° Northeast  Level Estimated
12:18PM 40.8983 156.1624 65° Northeast  Level Estimated
12:19PM 40.9573 156.3334 65° Northeast  Level Estimated
12:20PM 41.0160 156.5046 66° East  Level Estimated
12:21PM 41.0745 156.6761 66° East  Level Estimated
12:22PM 41.1328 156.8480 66° East  Level Estimated
12:23PM 41.1908 157.0201 66° East  Level Estimated
12:24PM 41.2485 157.1926 66° East  Level Estimated
12:25PM 41.3060 157.3653 66° East  Level Estimated
12:26PM 41.3632 157.5384 66° East  Level Estimated
12:27PM 41.4201 157.7117 66° East  Level Estimated
12:28PM 41.4768 157.8854 66° East  Level Estimated
12:29PM 41.5332 158.0594 67° East  Level Estimated
12:30PM 41.5894 158.2337 67° East  Level Estimated
12:31PM 41.6453 158.4082 67° East  Level Estimated
12:32PM 41.7009 158.5831 67° East  Level Estimated
12:33PM 41.7563 158.7583 67° East  Level Estimated
12:34PM 41.8114 158.9338 67° East  Level Estimated
12:35PM 41.8662 159.1096 67° East  Level Estimated
12:36PM 41.9208 159.2856 67° East  Level Estimated
12:37PM 41.9751 159.4620 67° East  Level Estimated
12:38PM 42.0291 159.6387 68° East  Level Estimated
12:39PM 42.0829 159.8157 68° East  Level Estimated
12:40PM 42.1363 159.9930 68° East  Level Estimated
12:41PM 42.1895 160.1706 68° East  Level Estimated
12:42PM 42.2425 160.3485 68° East  Level Estimated
12:43PM 42.2951 160.5267 68° East  Level Estimated
12:44PM 42.3475 160.7051 68° East  Level Estimated
12:44PM 37.1000 164.9333 90° East 576 663 35,000  Level Oakland Oceanic (ODAPS)
12:45PM 42.3996 160.8839 68° East  Level Estimated
12:46PM 42.4515 161.0630 69° East  Level Estimated
12:47PM 42.5030 161.2423 69° East  Level Estimated
12:48PM 42.5543 161.4220 69° East  Level Estimated
12:49PM 42.6053 161.6020 69° East  Level Estimated
12:50PM 37.0957 166.1503 91° East 576 663 35,000  Level FlightAware Transoceanic
12:51PM 37.0937 166.3531 91° East 576 663 35,000  Level FlightAware Transoceanic
12:52PM 37.0915 166.5559 91° East 576 663 35,000  Level FlightAware Transoceanic
12:53PM 37.0888 166.7587 91° East 576 663 35,000  Level FlightAware Transoceanic
12:54PM 37.0859 166.9615 91° East 576 663 35,000  Level FlightAware Transoceanic
12:55PM 37.0826 167.1642 91° East 576 663 35,000  Level FlightAware Transoceanic
12:56PM 37.0789 167.3670 91° East 576 663 35,000  Level FlightAware Transoceanic
12:57PM 37.0749 167.5697 91° East 576 663 35,000  Level FlightAware Transoceanic
12:57PM 37.0667 167.7000 91° East 586 674 35,000  Level Oakland Oceanic (ODAPS)
12:58PM 37.0705 167.7724 92° East 576 663 35,000  Level FlightAware Transoceanic
12:59PM 37.0659 167.9751 92° East 576 663 35,000  Level FlightAware Transoceanic
01:00PM 37.0608 168.1777 92° East 576 663 35,000  Level FlightAware Transoceanic
01:01PM 37.0554 168.3803 92° East 576 663 35,000  Level FlightAware Transoceanic
01:02PM 37.0497 168.5829 92° East 576 663 35,000  Level FlightAware Transoceanic
01:03PM 37.0437 168.7854 92° East 576 663 35,000  Level FlightAware Transoceanic
01:04PM 37.0358 168.9550 92° East 586 674 35,000  Level FlightAware Transoceanic
01:05PM 37.0294 169.1641 92° East 586 674 35,000  Level FlightAware Transoceanic
01:06PM 37.0226 169.3732 92° East 586 674 35,000  Level FlightAware Transoceanic
01:07PM 37.0154 169.5821 93° East 586 674 35,000  Level FlightAware Transoceanic
01:08PM 37.0079 169.7911 93° East 586 674 35,000  Level FlightAware Transoceanic
01:09PM 37.0000 170.0000 87° East 586 674 35,000  Level FlightAware Transoceanic
01:09PM 37.0000 170.0000 87° East 570 656 35,000  Level Oakland Oceanic (ODAPS)
01:10PM 37.0081 170.1957 87° East 586 674 35,000  Level FlightAware Transoceanic
01:11PM 37.0158 170.3915 87° East 586 674 35,000  Level FlightAware Transoceanic
01:11PM 37.0167 170.5000 87° East 570 656 35,000  Level Oakland Oceanic (ODAPS)
01:12PM 37.0232 170.5873 87° East 586 674 35,000  Level FlightAware Transoceanic
01:13PM 37.0303 170.7832 87° East 586 674 35,000  Level FlightAware Transoceanic
01:14PM 37.0371 170.9791 88° East 586 674 35,000  Level FlightAware Transoceanic
01:15PM 37.0436 171.1750 88° East 586 674 35,000  Level FlightAware Transoceanic
01:16PM 37.0497 171.3710 88° East 570 656 35,000  Level FlightAware Transoceanic
01:17PM 37.0555 171.5670 88° East 570 656 35,000  Level FlightAware Transoceanic
01:18PM 37.0560 171.6864 88° East 570 656 35,000  Level FlightAware Transoceanic
01:19PM 37.0615 171.8843 88° East 570 656 35,000  Level FlightAware Transoceanic
01:20PM 37.0665 172.0822 88° East 570 656 35,000  Level FlightAware Transoceanic
01:21PM 37.0713 172.2801 88° East 570 656 35,000  Level FlightAware Transoceanic
01:22PM 37.0757 172.4780 88° East 570 656 35,000  Level FlightAware Transoceanic
01:23PM 37.0798 172.6759 89° East 570 656 35,000  Level FlightAware Transoceanic
01:24PM 37.0836 172.8739 89° East 570 656 35,000  Level FlightAware Transoceanic
01:25PM 37.0870 173.0719 89° East 570 656 35,000  Level FlightAware Transoceanic
01:25PM 37.1000 173.3333 89° East 576 663 35,000  Level Oakland Oceanic (ODAPS)
01:26PM 37.0901 173.2699 89° East 570 656 35,000  Level FlightAware Transoceanic
01:27PM 37.0929 173.4679 89° East 570 656 35,000  Level FlightAware Transoceanic
01:28PM 37.0954 173.6660 89° East 570 656 35,000  Level FlightAware Transoceanic
01:29PM 37.0975 173.8640 89° East 570 656 35,000  Level FlightAware Transoceanic
01:30PM 37.0993 174.0621 89° East 570 656 35,000  Level FlightAware Transoceanic
01:31PM 37.1095 174.5106 90° East 576 663 35,000  Level FlightAware Transoceanic
01:32PM 37.1099 174.7068 90° East 576 663 35,000  Level FlightAware Transoceanic
01:33PM 37.1101 174.9030 90° East 576 663 35,000  Level FlightAware Transoceanic
01:34PM 37.1099 175.0992 90° East 576 663 35,000  Level FlightAware Transoceanic
01:35PM 37.1093 175.2955 90° East 576 663 35,000  Level FlightAware Transoceanic
01:36PM 37.1085 175.4917 90° East 576 663 35,000  Level FlightAware Transoceanic
01:37PM 37.1073 175.6879 90° East 576 663 35,000  Level FlightAware Transoceanic
01:38PM 37.1059 175.8841 91° East 576 663 35,000  Level FlightAware Transoceanic
01:39PM 37.1040 176.0803 91° East 576 663 35,000  Level FlightAware Transoceanic
01:39PM 37.1000 176.0833 91° East 565 650 35,000  Level Oakland Oceanic (ODAPS)
01:40PM 37.1019 176.2765 91° East 576 663 35,000  Level FlightAware Transoceanic
01:41PM 37.0994 176.4727 91° East 576 663 35,000  Level FlightAware Transoceanic
01:42PM 37.0967 176.6689 91° East 576 663 35,000  Level FlightAware Transoceanic
01:43PM 37.0936 176.8650 91° East 576 663 35,000  Level FlightAware Transoceanic
01:44PM 37.0901 177.0612 91° East 576 663 35,000  Level FlightAware Transoceanic
01:45PM 37.0835 177.2593 91° East 565 650 35,000  Level FlightAware Transoceanic
01:46PM 37.0797 177.4553 91° East 565 650 35,000  Level FlightAware Transoceanic
01:47PM 37.0755 177.6512 92° East 565 650 35,000  Level FlightAware Transoceanic
01:48PM 37.0709 177.8471 92° East 565 650 35,000  Level FlightAware Transoceanic
01:49PM 37.0661 178.0430 92° East 565 650 35,000  Level FlightAware Transoceanic
01:50PM 37.0609 178.2388 92° East 565 650 35,000  Level FlightAware Transoceanic
01:51PM 37.0555 178.4346 92° East 565 650 35,000  Level FlightAware Transoceanic
01:52PM 37.0496 178.6304 92° East 565 650 35,000  Level FlightAware Transoceanic
01:53PM 37.0435 178.8262 92° East 565 650 35,000  Level FlightAware Transoceanic
01:53PM 37.0500 178.7667 93° East 556 640 35,000  Level Oakland Oceanic (ODAPS)
01:54PM 37.0371 179.0219 92° East 565 650 35,000  Level FlightAware Transoceanic
01:55PM 37.0303 179.2176 93° East 565 650 35,000  Level FlightAware Transoceanic
01:56PM 37.0232 179.4133 93° East 565 650 35,000  Level FlightAware Transoceanic
01:57PM 37.0158 179.6089 93° East 565 650 35,000  Level FlightAware Transoceanic
01:58PM 37.0081 179.8045 93° East 565 650 35,000  Level FlightAware Transoceanic
01:59PM 37.0079 179.8239 93° East 556 640 35,000  Level FlightAware Transoceanic
02:00PM 37.0000 -180.0000 87° East 556 640 35,000  Level FlightAware Transoceanic
02:00PM 37.0000 180.0000 87° East 556 640 35,000  Level Oakland Oceanic (ODAPS)
02:01PM 37.0079 -179.8080 87° East 556 640 35,000  Level FlightAware Transoceanic
02:02PM 37.0155 -179.6160 87° East 556 640 35,000  Level FlightAware Transoceanic
02:03PM 37.0228 -179.4240 87° East 556 640 35,000  Level FlightAware Transoceanic
02:04PM 37.0298 -179.2319 87° East 556 640 35,000  Level FlightAware Transoceanic
02:05PM 37.0365 -179.0398 88° East 556 640 35,000  Level FlightAware Transoceanic
02:06PM 37.0429 -178.8476 88° East 556 640 35,000  Level FlightAware Transoceanic
02:07PM 37.0489 -178.6554 88° East 556 640 35,000  Level FlightAware Transoceanic
02:07PM 37.0500 -178.5833 88° East 555 639 35,000  Level Oakland Oceanic (ODAPS)
02:08PM 37.0547 -178.4632 88° East 556 640 35,000  Level FlightAware Transoceanic
02:09PM 37.0601 -178.2710 88° East 556 640 35,000  Level FlightAware Transoceanic
02:10PM 37.0652 -178.0787 88° East 556 640 35,000  Level FlightAware Transoceanic
02:11PM 37.0701 -177.8864 88° East 556 640 35,000  Level FlightAware Transoceanic
02:12PM 37.0746 -177.6941 88° East 556 640 35,000  Level FlightAware Transoceanic
02:13PM 37.0791 -177.4392 89° East 555 639 35,000  Level FlightAware Transoceanic
02:14PM 37.0829 -177.2485 89° East 555 639 35,000  Level FlightAware Transoceanic
02:15PM 37.0863 -177.0577 89° East 555 639 35,000  Level FlightAware Transoceanic
02:16PM 37.0895 -176.8669 89° East 555 639 35,000  Level FlightAware Transoceanic
02:17PM 37.0924 -176.6761 89° East 555 639 35,000  Level FlightAware Transoceanic
02:18PM 37.0949 -176.4852 89° East 555 639 35,000  Level FlightAware Transoceanic
02:19PM 37.0972 -176.2944 89° East 555 639 35,000  Level FlightAware Transoceanic
02:20PM 37.0991 -176.1035 89° East 555 639 35,000  Level FlightAware Transoceanic
02:21PM 37.1008 -175.9127 89° East 555 639 35,000  Level FlightAware Transoceanic
02:21PM 37.1000 -175.9500 89° East 551 634 35,000  Level Oakland Oceanic (ODAPS)
02:22PM 37.1021 -175.7218 90° East 555 639 35,000  Level FlightAware Transoceanic
02:23PM 37.1031 -175.5310 90° East 555 639 35,000  Level FlightAware Transoceanic
02:24PM 37.1039 -175.3401 90° East 555 639 35,000  Level FlightAware Transoceanic
02:25PM 37.1043 -175.1492 90° East 555 639 35,000  Level FlightAware Transoceanic
02:26PM 37.1044 -174.9583 90° East 555 639 35,000  Level FlightAware Transoceanic
02:27PM 37.1039 -174.7975 90° East 551 634 35,000  Level FlightAware Transoceanic
02:28PM 37.1034 -174.6055 90° East 551 634 35,000  Level FlightAware Transoceanic
02:29PM 37.1027 -174.4134 90° East 551 634 35,000  Level FlightAware Transoceanic
02:30PM 37.1016 -174.2213 90° East 551 634 35,000  Level FlightAware Transoceanic
02:31PM 37.1002 -174.0292 91° East 551 634 35,000  Level FlightAware Transoceanic
02:32PM 37.0986 -173.8372 91° East 551 634 35,000  Level FlightAware Transoceanic
02:33PM 37.0966 -173.6451 91° East 551 634 35,000  Level FlightAware Transoceanic
02:34PM 37.0943 -173.4531 91° East 551 634 35,000  Level FlightAware Transoceanic
02:35PM 37.0917 -173.2610 91° East 551 634 35,000  Level FlightAware Transoceanic
02:35PM 37.1000 -173.3333 91° East 550 633 35,000  Level Oakland Oceanic (ODAPS)
02:36PM 37.0887 -173.0690 91° East 551 634 35,000  Level FlightAware Transoceanic
02:37PM 37.0855 -172.8770 91° East 551 634 35,000  Level FlightAware Transoceanic
02:38PM 37.0820 -172.6851 91° East 551 634 35,000  Level FlightAware Transoceanic
02:39PM 37.0781 -172.4931 91° East 551 634 35,000  Level FlightAware Transoceanic
02:40PM 37.0740 -172.3012 92° East 551 634 35,000  Level FlightAware Transoceanic
02:41PM 37.0754 -172.1559 92° East 550 633 35,000  Level FlightAware Transoceanic
02:42PM 37.0701 -171.9597 92° East 550 633 35,000  Level FlightAware Transoceanic
02:43PM 37.0646 -171.7636 92° East 550 633 35,000  Level FlightAware Transoceanic
02:44PM 37.0587 -171.5675 92° East 550 633 35,000  Level FlightAware Transoceanic
02:45PM 37.0525 -171.3715 92° East 550 633 35,000  Level FlightAware Transoceanic
02:46PM 37.0459 -171.1754 92° East 550 633 35,000  Level FlightAware Transoceanic
02:47PM 37.0391 -170.9794 93° East 550 633 35,000  Level FlightAware Transoceanic
02:48PM 37.0319 -170.7835 93° East 550 633 35,000  Level FlightAware Transoceanic
02:48PM 37.0333 -170.6667 93° East 551 634 35,000  Level Oakland Oceanic (ODAPS)
02:49PM 37.0244 -170.5875 93° East 550 633 35,000  Level FlightAware Transoceanic
02:50PM 37.0166 -170.3916 93° East 550 633 35,000  Level FlightAware Transoceanic
02:51PM 37.0085 -170.1958 93° East 550 633 35,000  Level FlightAware Transoceanic
02:52PM 37.0000 -170.0000 73° East 550 633 35,000  Level FlightAware Transoceanic
02:52PM 37.0000 -170.0000 73° East 553 636 35,000  Level Oakland Oceanic (ODAPS)
02:53PM 37.0463 -169.8131 73° East 550 633 35,000  Level FlightAware Transoceanic
02:54PM 37.0923 -169.6259 73° East 550 633 35,000  Level FlightAware Transoceanic
02:55PM 37.1380 -169.4386 73° East 551 634 35,000  Level FlightAware Transoceanic
02:56PM 37.1834 -169.2509 73° East 551 634 35,000  Level FlightAware Transoceanic
02:57PM 37.2285 -169.0631 73° East 551 634 35,000  Level FlightAware Transoceanic
02:58PM 37.2733 -168.8751 73° East 551 634 35,000  Level FlightAware Transoceanic
02:59PM 37.3120 -168.7117 73° East 553 636 35,000  Level FlightAware Transoceanic
03:00PM 37.3554 -168.5267 74° East 553 636 35,000  Level FlightAware Transoceanic
03:01PM 37.3985 -168.3416 74° East 553 636 35,000  Level FlightAware Transoceanic
03:02PM 37.4414 -168.1563 74° East 553 636 35,000  Level FlightAware Transoceanic
03:02PM 37.4667 -168.0500 74° East 557 641 35,000  Level Oakland Oceanic (ODAPS)
03:03PM 37.4840 -167.9707 74° East 553 636 35,000  Level FlightAware Transoceanic
03:04PM 37.5262 -167.7850 74° East 553 636 35,000  Level FlightAware Transoceanic
03:05PM 37.5682 -167.5990 74° East 553 636 35,000  Level FlightAware Transoceanic
03:06PM 37.6099 -167.4128 74° East 553 636 35,000  Level FlightAware Transoceanic
03:07PM 37.6513 -167.2265 74° East 553 636 35,000  Level FlightAware Transoceanic
03:08PM 37.6924 -167.0399 75° East 553 636 35,000  Level FlightAware Transoceanic
03:09PM 37.7190 -166.9214 75° East 557 641 35,000  Level FlightAware Transoceanic
03:10PM 37.7600 -166.7326 75° East 557 641 35,000  Level FlightAware Transoceanic
03:11PM 37.8007 -166.5436 75° East 557 641 35,000  Level FlightAware Transoceanic
03:12PM 37.8411 -166.3543 75° East 557 641 35,000  Level FlightAware Transoceanic
03:13PM 37.8812 -166.1649 75° East 557 641 35,000  Level FlightAware Transoceanic
03:14PM 37.9210 -165.9752 75° East 557 641 35,000  Level FlightAware Transoceanic
03:15PM 37.9605 -165.7853 75° East 557 641 35,000  Level FlightAware Transoceanic
03:16PM 37.9997 -165.5953 75° East 557 641 35,000  Level FlightAware Transoceanic
03:16PM 38.0500 -165.3833 76° East 555 639 35,000  Level Oakland Oceanic (ODAPS)
03:17PM 38.0386 -165.4050 76° East 557 641 35,000  Level FlightAware Transoceanic
03:18PM 38.0772 -165.2145 76° East 557 641 35,000  Level FlightAware Transoceanic
03:19PM 38.1154 -165.0238 76° East 557 641 35,000  Level FlightAware Transoceanic
03:20PM 38.1534 -164.8330 76° East 557 641 35,000  Level FlightAware Transoceanic
03:21PM 38.1910 -164.6419 76° East 557 641 35,000  Level FlightAware Transoceanic
03:22PM 38.2284 -164.4506 76° East 557 641 35,000  Level FlightAware Transoceanic
03:23PM 38.3105 -164.0511 76° East 555 639 35,000  Level FlightAware Transoceanic
03:24PM 38.3465 -163.8600 77° East 555 639 35,000  Level FlightAware Transoceanic
03:25PM 38.3821 -163.6687 77° East 555 639 35,000  Level FlightAware Transoceanic
03:26PM 38.4175 -163.4772 77° East 555 639 35,000  Level FlightAware Transoceanic
03:27PM 38.4526 -163.2855 77° East 555 639 35,000  Level FlightAware Transoceanic
03:28PM 38.4873 -163.0937 77° East 555 639 35,000  Level FlightAware Transoceanic
03:29PM 38.5217 -162.9017 77° East 555 639 35,000  Level FlightAware Transoceanic
03:30PM 38.5558 -162.7095 77° East 555 639 35,000  Level FlightAware Transoceanic
03:30PM 38.5500 -162.7333 77° East 553 636 35,000  Level Oakland Oceanic (ODAPS)
03:31PM 38.5896 -162.5170 77° East 555 639 35,000  Level FlightAware Transoceanic
03:32PM 38.6231 -162.3245 78° East 555 639 35,000  Level FlightAware Transoceanic
03:33PM 38.6563 -162.1317 78° East 555 639 35,000  Level FlightAware Transoceanic
03:34PM 38.6891 -161.9388 78° East 555 639 35,000  Level FlightAware Transoceanic
03:35PM 38.7216 -161.7457 78° East 555 639 35,000  Level FlightAware Transoceanic
03:36PM 38.7506 -161.5661 78° East 553 636 35,000  Level FlightAware Transoceanic
03:37PM 38.7830 -161.3710 78° East 553 636 35,000  Level FlightAware Transoceanic
03:38PM 38.8149 -161.1756 78° East 553 636 35,000  Level FlightAware Transoceanic
03:39PM 38.8466 -160.9801 78° East 553 636 35,000  Level FlightAware Transoceanic
03:40PM 38.8779 -160.7844 78° East 553 636 35,000  Level FlightAware Transoceanic
03:41PM 38.9090 -160.5886 79° East 553 636 35,000  Level FlightAware Transoceanic
03:42PM 38.9396 -160.3926 79° East 553 636 35,000  Level FlightAware Transoceanic
03:43PM 38.9700 -160.1964 79° East 553 636 35,000  Level FlightAware Transoceanic
03:44PM 39.0000 -160.0000 79° East 553 636 35,000 660 Level FlightAware Transoceanic
03:44PM 38.9833 -160.1000 78° East 529 609 36,000  Climbing Oakland Oceanic (ODAPS)
03:45PM 39.0267 -159.8143 80° East 553 636 35,000  Descending FlightAware Transoceanic
03:45PM 39.0000 -160.0000 79° East 530 610 36,000  Climbing Oakland Oceanic (ODAPS)
03:46PM 39.0532 -159.6285 80° East 553 636 35,000 -600 Descending FlightAware Transoceanic
03:47PM 39.0793 -159.4425 80° East 553 636 35,000  Level FlightAware Transoceanic
03:48PM 39.1051 -159.2564 80° East 553 636 35,000  Level FlightAware Transoceanic
03:49PM 39.1306 -159.0702 80° East 553 636 35,000 480 Level FlightAware Transoceanic
03:50PM 39.1331 -159.0523 80° East 529 609 36,000 480 Climbing FlightAware Transoceanic
03:51PM 39.1559 -158.8839 80° East 530 610 36,000  Level FlightAware Transoceanic
03:52PM 39.1808 -158.6974 80° East 530 610 36,000  Level FlightAware Transoceanic
03:53PM 39.2055 -158.5107 80° East 530 610 36,000  Level FlightAware Transoceanic
03:54PM 39.2298 -158.3240 81° East 530 610 36,000  Level FlightAware Transoceanic
03:55PM 39.2539 -158.1371 81° East 530 610 36,000  Level FlightAware Transoceanic
03:56PM 39.2776 -157.9500 81° East 530 610 36,000  Level FlightAware Transoceanic
03:57PM 39.3011 -157.7629 81° East 530 610 36,000  Level FlightAware Transoceanic
03:58PM 39.3242 -157.5756 81° East 530 610 36,000  Level FlightAware Transoceanic
03:58PM 39.3333 -157.4500 81° East 524 603 36,000  Level Oakland Oceanic (ODAPS)
03:59PM 39.3471 -157.3882 81° East 530 610 36,000  Level FlightAware Transoceanic
04:00PM 39.3697 -157.2007 81° East 530 610 36,000  Level FlightAware Transoceanic
04:01PM 39.3919 -157.0131 81° East 530 610 36,000  Level FlightAware Transoceanic
04:02PM 39.4138 -156.8253 81° East 530 610 36,000  Level FlightAware Transoceanic
04:03PM 39.4355 -156.6375 82° East 530 610 36,000  Level FlightAware Transoceanic
04:04PM 39.4635 -156.3424 82° East 524 603 36,000  Level FlightAware Transoceanic
04:05PM 39.4842 -156.1574 82° East 524 603 36,000  Level FlightAware Transoceanic
04:06PM 39.5046 -155.9723 82° East 524 603 36,000  Level FlightAware Transoceanic
04:07PM 39.5247 -155.7871 82° East 524 603 36,000  Level FlightAware Transoceanic
04:08PM 39.5445 -155.6017 82° East 524 603 36,000  Level FlightAware Transoceanic
04:09PM 39.5640 -155.4163 82° East 524 603 36,000  Level FlightAware Transoceanic
04:10PM 39.5832 -155.2308 82° East 524 603 36,000  Level FlightAware Transoceanic
04:11PM 39.6021 -155.0452 83° East 524 603 36,000  Level FlightAware Transoceanic
04:12PM 39.6207 -154.8594 83° East 524 603 36,000  Level FlightAware Transoceanic
04:12PM 39.6167 -154.8667 83° East 523 602 36,000  Level Oakland Oceanic (ODAPS)
04:13PM 39.6391 -154.6736 83° East 524 603 36,000  Level FlightAware Transoceanic
04:14PM 39.6571 -154.4877 83° East 524 603 36,000  Level FlightAware Transoceanic
04:15PM 39.6748 -154.3016 83° East 524 603 36,000  Level FlightAware Transoceanic
04:16PM 39.6922 -154.1155 83° East 524 603 36,000  Level FlightAware Transoceanic
04:17PM 39.7094 -153.9293 83° East 524 603 36,000  Level FlightAware Transoceanic
04:18PM 39.7231 -153.7486 83° East 523 602 36,000  Level FlightAware Transoceanic
04:19PM 39.7398 -153.5620 83° East 523 602 36,000  Level FlightAware Transoceanic
04:20PM 39.7562 -153.3752 84° East 523 602 36,000  Level FlightAware Transoceanic
04:21PM 39.7723 -153.1884 84° East 523 602 36,000  Level FlightAware Transoceanic
04:22PM 39.7882 -153.0014 84° East 523 602 36,000  Level FlightAware Transoceanic
04:23PM 39.8036 -152.8144 84° East 523 602 36,000  Level FlightAware Transoceanic
04:24PM 39.8189 -152.6273 84° East 523 602 36,000  Level FlightAware Transoceanic
04:25PM 39.8338 -152.4401 84° East 523 602 36,000  Level FlightAware Transoceanic
04:26PM 39.8484 -152.2529 84° East 523 602 36,000  Level FlightAware Transoceanic
04:26PM 39.8500 -152.2500 84° East 520 598 36,000  Level Oakland Oceanic (ODAPS)
04:27PM 39.8627 -152.0655 84° East 523 602 36,000  Level FlightAware Transoceanic
04:28PM 39.8767 -151.8781 85° East 523 602 36,000  Level FlightAware Transoceanic
04:29PM 39.8904 -151.6906 85° East 523 602 36,000  Level FlightAware Transoceanic
04:30PM 39.9038 -151.5030 85° East 523 602 36,000  Level FlightAware Transoceanic
04:31PM 39.9168 -151.3154 85° East 523 602 36,000  Level FlightAware Transoceanic
04:32PM 39.9304 -151.1262 85° East 520 598 36,000  Level FlightAware Transoceanic
04:33PM 39.9428 -150.9387 85° East 520 598 36,000  Level FlightAware Transoceanic
04:34PM 39.9548 -150.7511 85° East 520 598 36,000  Level FlightAware Transoceanic
04:35PM 39.9666 -150.5634 85° East 520 598 36,000  Level FlightAware Transoceanic
04:36PM 39.9780 -150.3757 86° East 520 598 36,000  Level FlightAware Transoceanic
04:37PM 39.9892 -150.1879 86° East 520 598 36,000  Level FlightAware Transoceanic
04:38PM 40.0000 -150.0000 87° East 520 598 36,000  Level FlightAware Transoceanic
04:38PM 40.0000 -150.0000 87° East 506 582 36,000  Level Oakland Oceanic (ODAPS)
04:39PM 40.0080 -149.8117 87° East 520 598 36,000  Level FlightAware Transoceanic
04:39PM 40.0167 -149.6833 87° East 499 574 36,000  Level Oakland Oceanic (ODAPS)
04:40PM 40.0156 -149.6234 87° East 520 598 36,000  Level FlightAware Transoceanic
04:41PM 40.0230 -149.4350 87° East 520 598 36,000  Level FlightAware Transoceanic
04:42PM 40.0300 -149.2465 87° East 520 598 36,000  Level FlightAware Transoceanic
04:43PM 40.0367 -149.0581 87° East 520 598 36,000  Level FlightAware Transoceanic
04:44PM 40.0418 -148.9107 87° East 506 582 36,000  Level FlightAware Transoceanic
04:45PM 40.0478 -148.7290 88° East 506 582 36,000  Level FlightAware Transoceanic
04:46PM 40.0553 -148.5883 88° East 499 574 36,000  Level FlightAware Transoceanic
04:47PM 40.0607 -148.4057 88° East 499 574 36,000  Level FlightAware Transoceanic
04:48PM 40.0658 -148.2231 88° East 499 574 36,000  Level FlightAware Transoceanic
04:49PM 40.0707 -148.0404 88° East 499 574 36,000  Level FlightAware Transoceanic
04:50PM 40.0753 -147.8578 88° East 499 574 36,000  Level FlightAware Transoceanic
04:51PM 40.0796 -147.6750 88° East 499 574 36,000  Level FlightAware Transoceanic
04:52PM 40.0836 -147.4923 88° East 499 574 36,000  Level FlightAware Transoceanic
04:53PM 40.0873 -147.3095 89° East 499 574 36,000  Level FlightAware Transoceanic
04:53PM 40.0833 -147.1833 89° East 499 574 36,000  Level Oakland Oceanic (ODAPS)
04:54PM 40.0907 -147.1268 89° East 499 574 36,000  Level FlightAware Transoceanic
04:55PM 40.0938 -146.9440 89° East 499 574 36,000  Level FlightAware Transoceanic
04:56PM 40.0967 -146.7612 89° East 499 574 36,000  Level FlightAware Transoceanic
04:57PM 40.0992 -146.5783 89° East 499 574 36,000  Level FlightAware Transoceanic
04:58PM 40.1015 -146.3955 89° East 499 574 36,000  Level FlightAware Transoceanic
04:59PM 40.1035 -146.2126 89° East 499 574 36,000  Level FlightAware Transoceanic
05:00PM 40.0994 -146.0778 89° East 499 574 36,000  Level FlightAware Transoceanic
05:01PM 40.1011 -145.8935 89° East 499 574 36,000  Level FlightAware Transoceanic
05:02PM 40.1024 -145.7092 90° East 499 574 36,000  Level FlightAware Transoceanic
05:03PM 40.1035 -145.5248 90° East 499 574 36,000  Level FlightAware Transoceanic
05:04PM 40.1043 -145.3405 90° East 499 574 36,000  Level FlightAware Transoceanic
05:05PM 40.1048 -145.1562 90° East 499 574 36,000  Level FlightAware Transoceanic
05:06PM 40.1050 -144.9718 90° East 499 574 36,000  Level FlightAware Transoceanic
05:07PM 40.1049 -144.7875 90° East 499 574 36,000  Level FlightAware Transoceanic
05:07PM 40.1000 -144.6500 90° East 503 579 36,000  Level Oakland Oceanic (ODAPS)
05:08PM 40.1045 -144.6032 90° East 499 574 36,000  Level FlightAware Transoceanic
05:09PM 40.1038 -144.4189 90° East 499 574 36,000  Level FlightAware Transoceanic
05:10PM 40.1029 -144.2345 90° East 499 574 36,000  Level FlightAware Transoceanic
05:11PM 40.1016 -144.0502 91° East 499 574 36,000  Level FlightAware Transoceanic
05:12PM 40.1000 -143.8659 91° East 499 574 36,000  Level FlightAware Transoceanic
05:13PM 40.0982 -143.6816 91° East 499 574 36,000  Level FlightAware Transoceanic
05:14PM 40.0914 -143.3969 91° East 503 579 36,000  Level FlightAware Transoceanic
05:15PM 40.0890 -143.2180 91° East 503 579 36,000  Level FlightAware Transoceanic
05:16PM 40.0864 -143.0390 91° East 503 579 36,000  Level FlightAware Transoceanic
05:17PM 40.0835 -142.8600 91° East 503 579 36,000  Level FlightAware Transoceanic
05:18PM 40.0804 -142.6811 91° East 503 579 36,000  Level FlightAware Transoceanic
05:19PM 40.0770 -142.5022 91° East 503 579 36,000  Level FlightAware Transoceanic
05:20PM 40.0732 -142.3233 92° East 503 579 36,000  Level FlightAware Transoceanic
05:21PM 40.0693 -142.1444 92° East 503 579 36,000  Level FlightAware Transoceanic
05:21PM 40.0667 -142.1167 92° East 506 582 36,000  Level Oakland Oceanic (ODAPS)
05:22PM 40.0650 -141.9656 92° East 503 579 36,000  Level FlightAware Transoceanic
05:23PM 40.0605 -141.7867 92° East 503 579 36,000  Level FlightAware Transoceanic
05:24PM 40.0556 -141.6079 92° East 503 579 36,000  Level FlightAware Transoceanic
05:25PM 40.0506 -141.4291 92° East 503 579 36,000  Level FlightAware Transoceanic
05:26PM 40.0452 -141.2504 92° East 503 579 36,000  Level FlightAware Transoceanic
05:27PM 40.0382 -141.0578 92° East 506 582 36,000  Level FlightAware Transoceanic
05:28PM 40.0325 -140.8814 92° East 506 582 36,000  Level FlightAware Transoceanic
05:29PM 40.0265 -140.7051 93° East 506 582 36,000  Level FlightAware Transoceanic
05:30PM 40.0203 -140.5288 93° East 506 582 36,000  Level FlightAware Transoceanic
05:31PM 40.0138 -140.3525 93° East 506 582 36,000  Level FlightAware Transoceanic
05:32PM 40.0070 -140.1762 93° East 506 582 36,000  Level FlightAware Transoceanic
05:33PM 40.0000 -140.0000 101° East 506 582 36,000  Level FlightAware Transoceanic
05:34PM 39.9729 -139.8230 101° East 506 582 36,000  Level FlightAware Transoceanic
05:34PM 40.0000 -140.0000 101° East 486 559 36,000  Level Oakland Oceanic (ODAPS)
05:35PM 39.9455 -139.6462 101° East 506 582 36,000 240 Level FlightAware Transoceanic
05:35PM 39.9500 -139.6167 102° East 480 552 36,300  Climbing Oakland Oceanic (ODAPS)
05:36PM 39.9179 -139.4695 102° East 506 582 36,000 -240 Descending FlightAware Transoceanic
05:37PM 39.8900 -139.2930 102° East 506 582 36,000  Level FlightAware Transoceanic
05:38PM 39.8618 -139.1166 102° East 506 582 36,000  Level FlightAware Transoceanic
05:39PM 39.8334 -138.9403 102° East 506 582 36,000  Level FlightAware Transoceanic
05:40PM 39.8081 -138.7851 102° East 486 559 36,000 120 Level FlightAware Transoceanic
05:41PM 39.7855 -138.5982 102° East 480 552 36,300 120 Climbing FlightAware Transoceanic
05:42PM 39.7572 -138.4289 102° East 480 552 36,300  Level FlightAware Transoceanic
05:43PM 39.7287 -138.2598 102° East 480 552 36,300  Level FlightAware Transoceanic
05:44PM 39.6999 -138.0908 103° East 480 552 36,300  Level FlightAware Transoceanic
05:45PM 39.6709 -137.9220 103° East 480 552 36,300  Level FlightAware Transoceanic
05:46PM 39.6417 -137.7533 103° East 480 552 36,300  Level FlightAware Transoceanic
05:47PM 39.6122 -137.5847 103° East 480 552 36,300  Level FlightAware Transoceanic
05:48PM 39.5824 -137.4163 103° East 480 552 36,300  Level FlightAware Transoceanic
05:49PM 39.5524 -137.2480 103° East 480 552 36,300 540 Level FlightAware Transoceanic
05:49PM 39.5500 -137.2500 103° East 475 547 37,000  Climbing Oakland Oceanic (ODAPS)
05:50PM 39.5222 -137.0799 103° East 480 552 36,300 -420 Descending FlightAware Transoceanic
05:51PM 39.4917 -136.9119 103° East 480 552 36,300  Level FlightAware Transoceanic
05:52PM 39.4610 -136.7441 103° East 480 552 36,300  Level FlightAware Transoceanic
05:53PM 39.4301 -136.5764 103° East 480 552 36,300  Level FlightAware Transoceanic
05:54PM 39.3989 -136.4089 104° East 480 552 36,300 300 Level FlightAware Transoceanic
05:55PM 39.3653 -136.2432 104° East 475 547 37,000 300 Climbing FlightAware Transoceanic
05:56PM 39.3337 -136.0760 104° East 475 547 37,000  Level FlightAware Transoceanic
05:57PM 39.3019 -135.9088 104° East 475 547 37,000  Level FlightAware Transoceanic
05:58PM 39.2698 -135.7419 104° East 475 547 37,000  Level FlightAware Transoceanic
05:59PM 39.2374 -135.5751 104° East 475 547 37,000  Level FlightAware Transoceanic
06:00PM 39.2049 -135.4084 104° East 475 547 37,000  Level FlightAware Transoceanic
06:01PM 39.1721 -135.2419 104° East 475 547 37,000  Level FlightAware Transoceanic
06:02PM 39.1390 -135.0755 104° East 475 547 37,000  Level FlightAware Transoceanic
06:03PM 39.1057 -134.9094 105° East 475 547 37,000  Level FlightAware Transoceanic
06:03PM 39.1167 -134.9500 105° East 468 539 37,000  Level Oakland Oceanic (ODAPS)
06:04PM 39.0722 -134.7433 105° East 475 547 37,000  Level FlightAware Transoceanic
06:05PM 39.0385 -134.5775 105° East 475 547 37,000  Level FlightAware Transoceanic
06:06PM 39.0045 -134.4117 105° East 475 547 37,000  Level FlightAware Transoceanic
06:07PM 38.9702 -134.2462 105° East 475 547 37,000  Level FlightAware Transoceanic
06:08PM 38.9358 -134.0808 105° East 475 547 37,000  Level FlightAware Transoceanic
06:09PM 38.9169 -133.9801 105° East 468 539 37,000  Level FlightAware Transoceanic
06:10PM 38.8829 -133.8190 105° East 468 539 37,000  Level FlightAware Transoceanic
06:11PM 38.8486 -133.6580 105° East 468 539 37,000  Level FlightAware Transoceanic
06:12PM 38.8141 -133.4972 105° East 468 539 37,000  Level FlightAware Transoceanic
06:13PM 38.7793 -133.3365 106° East 468 539 37,000  Level FlightAware Transoceanic
06:14PM 38.7444 -133.1760 106° East 468 539 37,000  Level FlightAware Transoceanic
06:15PM 38.7092 -133.0157 106° East 468 539 37,000  Level FlightAware Transoceanic
06:16PM 38.6738 -132.8555 106° East 468 539 37,000  Level FlightAware Transoceanic
06:17PM 38.6382 -132.6955 106° East 468 539 37,000  Level FlightAware Transoceanic
06:17PM 38.6500 -132.7500 106° East 463 533 37,000  Level Oakland Oceanic (ODAPS)
06:18PM 38.6024 -132.5356 106° East 468 539 37,000  Level FlightAware Transoceanic
06:19PM 38.5663 -132.3759 106° East 468 539 37,000  Level FlightAware Transoceanic
06:20PM 38.5301 -132.2164 106° East 468 539 37,000  Level FlightAware Transoceanic
06:21PM 38.4936 -132.0570 106° East 468 539 37,000  Level FlightAware Transoceanic
06:22PM 38.4569 -131.8978 106° East 468 539 37,000  Level FlightAware Transoceanic
06:23PM 38.4279 -131.7738 107° East 463 533 37,000  Level FlightAware Transoceanic
06:24PM 38.3901 -131.6117 107° East 463 533 37,000  Level FlightAware Transoceanic
06:25PM 38.3521 -131.4497 107° East 463 533 37,000  Level FlightAware Transoceanic
06:26PM 38.3139 -131.2880 107° East 463 533 37,000  Level FlightAware Transoceanic
06:27PM 38.2754 -131.1264 107° East 463 533 37,000  Level FlightAware Transoceanic
06:28PM 38.2367 -130.9649 107° East 463 533 37,000  Level FlightAware Transoceanic
06:29PM 38.1978 -130.8037 107° East 463 533 37,000  Level FlightAware Transoceanic
06:30PM 38.1587 -130.6426 107° East 463 533 37,000  Level FlightAware Transoceanic
06:30PM 38.1500 -130.5833 108° East 457 526 37,000  Level Oakland Oceanic (ODAPS)
06:31PM 38.1194 -130.4817 107° East 463 533 37,000  Level FlightAware Transoceanic
06:32PM 38.0798 -130.3210 107° East 463 533 37,000  Level FlightAware Transoceanic
06:33PM 38.0400 -130.1604 108° East 463 533 37,000  Level FlightAware Transoceanic
06:34PM 38.0000 -130.0000 101° East 463 533 37,000  Level FlightAware Transoceanic
06:34PM 38.0000 -130.0000 101° East 465 535 37,000  Level Oakland Oceanic (ODAPS)
06:35PM 37.9742 -129.8323 101° East 463 533 37,000  Level FlightAware Transoceanic
06:36PM 37.9482 -129.6647 101° East 463 533 37,000  Level FlightAware Transoceanic
06:37PM 37.9220 -129.4972 101° East 457 526 37,000  Level FlightAware Transoceanic
06:38PM 37.8955 -129.3299 101° East 457 526 37,000  Level FlightAware Transoceanic
06:39PM 37.8688 -129.1626 101° East 457 526 37,000  Level FlightAware Transoceanic
06:40PM 37.8418 -128.9955 102° East 457 526 37,000  Level FlightAware Transoceanic
06:41PM 37.8246 -128.8900 102° East 465 535 37,000  Level FlightAware Transoceanic
06:42PM 37.7988 -128.7319 102° East 465 535 37,000  Level FlightAware Transoceanic
06:43PM 37.7726 -128.5739 102° East 465 535 37,000  Level FlightAware Transoceanic
06:44PM 37.7463 -128.4160 102° East 465 535 37,000  Level FlightAware Transoceanic
06:44PM 37.7500 -128.4000 102° East 463 533 37,000  Level Oakland Oceanic (ODAPS)
06:45PM 37.7198 -128.2582 102° East 465 535 37,000  Level FlightAware Transoceanic
06:46PM 37.6931 -128.1005 102° East 465 535 37,000  Level FlightAware Transoceanic
06:47PM 37.6661 -127.9430 102° East 465 535 37,000  Level FlightAware Transoceanic
06:48PM 37.6389 -127.7855 102° East 465 535 37,000  Level FlightAware Transoceanic
06:49PM 37.6116 -127.6282 102° East 465 535 37,000  Level FlightAware Transoceanic
06:50PM 37.5852 -127.4656 103° East 463 533 37,000 -120 Level FlightAware Transoceanic
06:50PM 37.5814 -127.5036 93° East 459 528 36,900  Descending Oakland Center
06:51PM 37.5570 -127.3103 103° East 463 533 37,000 60 Climbing FlightAware Transoceanic
06:51PM 37.5528 -127.3475 103° East 459 528 37,000  Level Oakland Center
06:52PM 37.5286 -127.1551 103° East 463 533 37,000  Level FlightAware Transoceanic
06:52PM 37.5264 -127.1906 102° East 458 527 37,000  Level Oakland Center
06:53PM 37.5000 -127.0000 93° East 463 533 37,000 -120 Level FlightAware Transoceanic
06:53PM 37.4981 -127.0353 103° East 457 526 36,900  Descending Oakland Center
06:54PM 37.4928 -126.8342 93° East 463 533 37,000 60 Climbing FlightAware Transoceanic
06:54PM 37.4806 -126.8453 97° East 458 527 37,000  Level Oakland Center
06:55PM 37.4853 -126.6684 93° East 463 533 37,000  Level FlightAware Transoceanic
06:55PM 37.4419 -126.6906 107° East 460 529 37,000 -120 Level Oakland Center
06:56PM 37.4061 -126.5358 106° East 463 533 36,900 -60 Descending Oakland Center
06:57PM 37.3711 -126.3836 106° East 456 525 36,900  Level Oakland Center
06:58PM 37.3336 -126.2297 107° East 460 529 37,000  Climbing Oakland Center
06:59PM 37.2967 -126.0753 107° East 462 532 37,000  Level Oakland Center
07:00PM 37.2600 -125.9208 107° East 463 533 37,000  Level Oakland Center
07:01PM 37.2136 -125.7361 107° East 464 534 37,000  Level Oakland Center
07:02PM 37.1761 -125.5819 107° East 463 533 37,000  Level Oakland Center
07:03PM 37.1392 -125.4286 107° East 462 532 37,000  Level Oakland Center
07:04PM 37.1014 -125.2736 107° East 465 535 37,000 -60 Level Oakland Center
07:05PM 37.0631 -125.1200 107° East 465 535 36,900  Descending Oakland Center
07:06PM 37.0242 -124.9647 107° East 468 539 37,000  Climbing Oakland Center
07:07PM 36.9853 -124.8117 108° East 466 536 36,900 -60 Descending Oakland Center
07:08PM 36.9386 -124.6281 108° East 464 534 36,900  Level Oakland Center
07:09PM 36.8992 -124.4733 108° East 468 539 37,000  Climbing Oakland Center
07:10PM 36.8589 -124.3197 108° East 468 539 37,000 -60 Level Oakland Center
07:11PM 36.8189 -124.1656 108° East 470 541 36,900  Descending Oakland Center
07:12PM 36.7761 -124.0089 109° East 474 545 37,000  Climbing Oakland Center
07:18PM 36.5560 -123.1630 109° East 480 552 37,000  Level FlightAware
07:19PM 36.4920 -122.9290 109° East 483 556 37,000  Level FlightAware
07:20PM 36.4580 -122.8020 108° East 485 558 37,000  Level FlightAware
07:21PM 36.4310 -122.7050 109° East 486 559 37,000  Level FlightAware
07:22PM 36.3940 -122.5680 109° East 484 557 37,000  Level FlightAware
07:22PM 36.3630 -122.4540 109° East 485 558 37,000  Level FlightAware
07:23PM 36.3330 -122.3480 109° East 485 558 37,000  Level FlightAware
07:24PM 36.3000 -122.2300 109° East 486 559 37,000  Level FlightAware
07:24PM 36.2710 -122.1260 109° East 486 559 37,000  Level FlightAware
07:25PM 36.2420 -122.0220 109° East 487 560 37,000  Level FlightAware
07:26PM 36.1890 -121.8340 109° East 487 560 37,000  Level FlightAware
07:27PM 36.1560 -121.7170 109° East 486 559 37,000  Level FlightAware
07:28PM 36.1230 -121.6020 110° East 486 559 37,000  Level FlightAware
07:28PM 36.1000 -121.5190 109° East 486 559 37,000  Level FlightAware
07:29PM 36.0630 -121.3920 110° East 487 560 37,000  Level FlightAware
07:30PM 36.0190 -121.2760 115° Southeast 488 562 37,000  Level FlightAware
07:30PM 35.9770 -121.1800 118° Southeast 488 562 37,000  Level FlightAware
07:31PM 35.9280 -121.0730 119° Southeast 489 563 37,000  Level FlightAware
07:32PM 35.8830 -120.9760 120° Southeast 489 563 37,000  Level FlightAware
07:33PM 35.8370 -120.8760 120° Southeast 491 565 37,000  Level FlightAware
07:33PM 35.7880 -120.7700 120° Southeast 491 565 37,000  Level FlightAware
07:34PM 35.7430 -120.6730 120° Southeast 491 565 37,000  Level FlightAware
07:35PM 35.6910 -120.5620 120° Southeast 492 566 37,000  Level FlightAware
07:35PM 35.6460 -120.4660 120° Southeast 493 567 37,000  Level FlightAware
07:36PM 35.5840 -120.3340 120° Southeast 494 568 37,000  Level FlightAware
07:37PM 35.5340 -120.2260 120° Southeast 495 570 37,000  Level FlightAware
07:38PM 35.4860 -120.1250 120° Southeast 495 570 37,000  Level FlightAware
07:38PM 35.4380 -120.0210 120° Southeast 496 571 37,000 -120 Level FlightAware
07:39PM 35.3890 -119.9200 121° Southeast 491 565 36,900 -1,080 Descending FlightAware
07:40PM 35.3420 -119.8220 120° Southeast 478 550 35,600 -1,920 Descending FlightAware
07:41PM 35.2940 -119.7200 120° Southeast 468 539 34,200 -1,920 Descending FlightAware
07:41PM 35.2460 -119.6390 126° Southeast 461 531 32,900 -1,980 Descending FlightAware
07:42PM 35.1780 -119.5730 142° Southeast 455 524 31,600 -1,980 Descending FlightAware
07:43PM 35.1000 -119.5070 145° Southeast 448 516 30,100 -1,980 Descending FlightAware
07:43PM 35.0330 -119.4510 146° Southeast 442 509 28,800 -1,920 Descending FlightAware
07:44PM 34.9710 -119.3990 145° Southeast 436 502 27,600 -1,320 Descending FlightAware
07:45PM 34.8930 -119.3320 145° Southeast 430 495 27,000 -480 Descending FlightAware
07:45PM 34.8250 -119.2750 145° Southeast 430 495 27,000 -840 Level FlightAware
07:46PM 34.7360 -119.1990 145° Southeast 423 487 25,700 -1,320 Descending FlightAware
07:47PM 34.6620 -119.1360 145° Southeast 428 493 24,700 -600 Descending FlightAware
07:48PM 34.5940 -119.0760 144° Southeast 428 493 24,700  Level FlightAware
07:49PM 34.5400 -119.0280 144° Southeast 428 493 24,700 -5,220 Level FlightAware
07:49PM 34.4590 -118.9660 148° Southeast 415 478 18,200 -6,120 Descending FlightAware
07:50PM 34.4590 -118.9660 148° Southeast 412 474 16,100 -1,380 Descending FlightAware
07:51PM 34.3950 -118.9120 145° Southeast 412 474 16,100 -2,100 Level FlightAware
07:51PM 34.2410 -118.8380 158° South 355 409 13,200 -2,340 Descending FlightAware
07:52PM 34.1930 -118.8210 164° South 355 409 13,200 -720 Level FlightAware
07:53PM 34.1400 -118.8020 163° South 12,000 -960 Descending FlightAware
07:54PM 34.0680 -118.7750 163° South 315 362 11,700 -720 Descending FlightAware
07:54PM 34.0310 -118.7400 142° Southeast 290 334 11,100 -2,040 Descending FlightAware
07:54PM 34.0330 -118.7000 87° East 276 318 10,200 -1,620 Descending FlightAware
07:55PM 34.0290 -118.6630 97° East 264 304 9,900 -840 Descending FlightAware
07:55PM 34.0250 -118.6070 95° East 240 276 9,300 -960 Descending FlightAware
07:56PM 34.0220 -118.5740 96° East 232 267 8,900 -1,140 Descending FlightAware
07:56PM 34.0180 -118.5370 97° East 231 266 8,300 -1,020 Descending FlightAware
07:57PM 34.0150 -118.5060 97° East 221 254 8,000 -720 Descending FlightAware
07:57PM 34.0140 -118.4960 97° East 216 249 7,900 -1,200 Descending FlightAware
07:58PM 34.0110 -118.4610 96° East 7,300 -1,320 Descending FlightAware
07:58PM 34.0150 -118.4090 85° East 192 221 6,300 -1,500 Descending FlightAware
07:59PM 34.0170 -118.3890 83° East 192 221 5,800 -1,500 Descending FlightAware
07:59PM 34.0230 -118.3360 82° East 197 227 4,600 -1,440 Descending FlightAware
08:00PM 34.0240 -118.3270 82° East 196 226 4,400 -1,140 Descending FlightAware
08:00PM 34.0290 -118.2810 83° East 190 219 3,600 -960 Descending FlightAware
08:01PM 34.0320 -118.2520 83° East 193 222 3,300 -600 Descending FlightAware
08:01PM 34.0360 -118.2150 83° East 191 220 3,000 -540 Descending FlightAware
08:02PM 34.0240 -118.1920 122° Southeast 189 217 2,800 -480 Descending FlightAware
08:02PM 34.0130 -118.1900 171° South 188 216 2,700 -540 Descending FlightAware
08:02PM 33.9920 -118.2060 212° Southwest 190 219 2,400 -540 Descending FlightAware
08:03PM 33.9720 -118.2420 236° Southwest 186 214 2,100 -480 Descending FlightAware
08:03PM 33.9670 -118.2590 250° West 183 211 2,000 -120 Descending FlightAware
08:04PM 33.9620 -118.2960 261° West 185 213 2,000  Level FlightAware